createdAt,value
2019-04-06T00:01:37.239Z,25.80
2019-04-06T00:04:08.209Z,22.93
2019-04-06T00:06:39.276Z,24.93
2019-04-06T00:09:09.139Z,24.85
2019-04-06T00:11:40.763Z,25.43
2019-04-06T00:14:10.463Z,23.05
2019-04-06T00:16:46.377Z,25.70
2019-04-06T00:19:18.199Z,22.80
2019-04-06T00:21:47.915Z,20.55
2019-04-06T00:24:18.809Z,24.95
2019-04-06T00:26:50.693Z,25.72
2019-04-06T00:29:20.387Z,24.37
2019-04-06T00:32:04.993Z,26.75
2019-04-06T00:34:35.955Z,30.10
2019-04-06T00:37:06.080Z,26.87
2019-04-06T00:39:36.199Z,33.98
2019-04-06T00:42:06.106Z,29.52
2019-04-06T00:44:37.071Z,26.33
2019-04-06T00:47:06.931Z,27.80
2019-04-06T00:49:36.935Z,28.67
2019-04-06T00:52:07.001Z,28.30
2019-04-06T00:54:37.099Z,29.50
2019-04-06T00:57:06.931Z,25.00
2019-04-06T00:59:37.600Z,29.63
2019-04-06T01:02:08.123Z,34.00
2019-04-06T01:04:44.051Z,27.87
2019-04-06T01:07:14.163Z,29.93
2019-04-06T01:09:44.291Z,31.65
2019-04-06T01:12:15.067Z,23.75
2019-04-06T01:14:45.935Z,27.30
2019-04-06T01:17:16.085Z,25.15
2019-04-06T01:19:49.278Z,42.08
2019-04-06T01:22:19.123Z,36.30
2019-04-06T01:24:49.088Z,30.72
2019-04-06T01:27:20.896Z,35.55
2019-04-06T01:29:50.711Z,32.95
2019-04-06T01:32:20.399Z,33.95
2019-04-06T01:34:52.313Z,31.68
2019-04-06T01:37:27.543Z,26.80
2019-04-06T01:39:57.530Z,36.73
2019-04-06T01:42:27.371Z,34.10
2019-04-06T01:44:57.067Z,34.98
2019-04-06T01:47:28.021Z,30.48
2019-04-06T01:50:00.117Z,35.30
2019-04-06T01:52:30.032Z,33.73
2019-04-06T01:55:00.983Z,30.88
2019-04-06T01:57:31.059Z,29.50
2019-04-06T02:00:00.903Z,31.60
2019-04-06T02:02:34.923Z,30.95
2019-04-06T02:05:07.507Z,31.68
2019-04-06T02:07:56.563Z,28.80
2019-04-06T02:10:26.259Z,39.85
2019-04-06T02:12:55.950Z,37.75
2019-04-06T02:15:25.917Z,32.00
2019-04-06T02:17:57.015Z,32.10
2019-04-06T02:20:26.867Z,35.33
2019-04-06T02:22:56.830Z,32.50
2019-04-06T02:25:26.659Z,31.57
2019-04-06T02:27:56.371Z,27.02
2019-04-06T02:30:30.474Z,33.33
2019-04-06T02:33:17.502Z,35.30
2019-04-06T02:35:56.615Z,29.10
2019-04-06T02:38:30.997Z,30.48
2019-04-06T02:41:09.325Z,41.30
2019-04-06T02:43:40.219Z,29.65
2019-04-06T02:46:09.900Z,27.00
2019-04-06T02:48:42.977Z,26.75
2019-04-06T02:51:15.103Z,29.23
2019-04-06T02:53:45.280Z,26.25
2019-04-06T02:56:15.665Z,30.95
2019-04-06T02:58:45.865Z,30.52
2019-04-06T03:01:15.961Z,37.05
2019-04-06T03:03:45.789Z,27.90
2019-04-06T03:06:16.129Z,38.45
2019-04-06T03:08:46.036Z,30.15
2019-04-06T03:11:15.799Z,24.00
2019-04-06T03:13:45.621Z,29.72
2019-04-06T03:16:22.041Z,28.23
2019-04-06T03:18:52.204Z,26.05
2019-04-06T03:21:29.081Z,28.27
2019-04-06T03:24:00.141Z,27.93
2019-04-06T03:26:36.515Z,29.98
2019-04-06T03:29:06.303Z,26.52
2019-04-06T03:31:38.337Z,28.95
2019-04-06T03:34:13.142Z,33.80
2019-04-06T03:36:44.876Z,31.20
2019-04-06T03:39:19.439Z,32.35
2019-04-06T03:41:49.529Z,34.83
2019-04-06T03:44:19.656Z,30.52
2019-04-06T03:46:50.380Z,32.67
2019-04-06T03:49:20.080Z,38.73
2019-04-06T03:51:50.087Z,29.82
2019-04-06T03:54:20.825Z,29.05
2019-04-06T03:56:50.848Z,32.17
2019-04-06T03:59:21.863Z,35.35
2019-04-06T04:01:51.726Z,32.35
2019-04-06T04:04:21.960Z,37.35
2019-04-06T04:06:51.733Z,32.05
2019-04-06T04:09:21.971Z,25.30
2019-04-06T04:11:54.144Z,40.33
2019-04-06T04:14:27.596Z,33.05
2019-04-06T04:16:57.309Z,24.27
2019-04-06T04:19:27.271Z,34.83
2019-04-06T04:21:57.365Z,31.27
2019-04-06T04:24:27.458Z,33.15
2019-04-06T04:26:57.627Z,34.78
2019-04-06T04:29:27.870Z,37.10
2019-04-06T04:32:03.504Z,35.60
2019-04-06T04:34:35.577Z,36.25
2019-04-06T04:37:07.587Z,53.40
2019-04-06T04:39:37.981Z,44.30
2019-04-06T04:42:09.265Z,41.80
2019-04-06T04:44:44.507Z,37.50
2019-04-06T04:47:14.227Z,42.03
2019-04-06T04:49:43.952Z,43.45
2019-04-06T04:52:14.076Z,49.38
2019-04-06T04:54:44.884Z,36.65
2019-04-06T04:57:16.007Z,38.20
2019-04-06T04:59:52.488Z,26.12
2019-04-06T05:02:33.637Z,33.55
2019-04-06T05:05:04.607Z,38.63
2019-04-06T05:07:34.708Z,33.50
2019-04-06T05:10:08.320Z,35.85
2019-04-06T05:12:39.404Z,39.38
2019-04-06T05:15:23.991Z,33.95
2019-04-06T05:17:53.986Z,44.13
2019-04-06T05:20:24.140Z,38.70
2019-04-06T05:22:53.935Z,30.43
2019-04-06T05:25:25.769Z,40.58
2019-04-06T05:27:55.903Z,41.28
2019-04-06T05:30:26.312Z,49.48
2019-04-06T05:32:59.404Z,47.60
2019-04-06T05:35:39.659Z,39.95
2019-04-06T05:38:09.840Z,42.45
2019-04-06T05:40:45.925Z,46.77
2019-04-06T05:43:16.023Z,45.10
2019-04-06T05:45:47.781Z,38.15
2019-04-06T05:48:18.848Z,38.50
2019-04-06T05:50:48.948Z,47.00
2019-04-06T05:53:18.838Z,45.05
2019-04-06T05:55:49.767Z,37.40
2019-04-06T05:58:26.108Z,38.53
2019-04-06T06:00:56.219Z,48.75
2019-04-06T06:03:27.259Z,40.67
2019-04-06T06:05:57.371Z,36.93
2019-04-06T06:08:27.262Z,50.97
2019-04-06T06:10:59.662Z,47.37
2019-04-06T06:13:35.962Z,44.83
2019-04-06T06:16:05.993Z,40.20
2019-04-06T06:18:45.615Z,43.90
2019-04-06T06:21:15.705Z,58.90
2019-04-06T06:23:45.556Z,55.63
2019-04-06T06:26:19.741Z,42.53
2019-04-06T06:28:52.391Z,47.70
2019-04-06T06:31:23.351Z,50.40
2019-04-06T06:33:53.286Z,48.33
2019-04-06T06:36:25.295Z,43.20
2019-04-06T06:39:00.700Z,43.67
2019-04-06T06:41:30.436Z,52.80
2019-04-06T06:44:00.296Z,44.27
2019-04-06T06:46:30.408Z,47.87
2019-04-06T06:49:00.265Z,38.10
2019-04-06T06:51:33.059Z,42.33
2019-04-06T06:54:03.020Z,38.93
2019-04-06T06:56:33.306Z,44.47
2019-04-06T06:59:05.501Z,37.80
2019-04-06T07:01:41.939Z,34.30
2019-04-06T07:04:12.019Z,34.73
2019-04-06T07:06:41.873Z,37.03
2019-04-06T07:09:12.863Z,40.43
2019-04-06T07:11:44.899Z,29.83
2019-04-06T07:14:15.064Z,36.47
2019-04-06T07:16:51.152Z,23.63
2019-04-06T07:19:21.507Z,28.00
2019-04-06T07:21:51.485Z,24.33
2019-04-06T07:24:30.525Z,23.63
2019-04-06T07:27:00.380Z,27.50
2019-04-06T07:29:36.851Z,30.03
2019-04-06T07:32:07.196Z,26.37
2019-04-06T07:34:40.492Z,23.37
2019-04-06T07:37:10.517Z,24.40
2019-04-06T07:39:42.529Z,19.33
2019-04-06T07:42:12.632Z,22.90
2019-04-06T07:44:42.735Z,20.00
2019-04-06T07:47:16.711Z,18.20
2019-04-06T07:49:57.291Z,13.00
2019-04-06T07:52:27.008Z,13.33
2019-04-06T07:54:56.812Z,13.00
2019-04-06T07:57:27.673Z,14.67
2019-04-06T07:59:57.777Z,21.93
2019-04-06T08:02:33.746Z,16.60
2019-04-06T08:05:04.722Z,20.30
2019-04-06T08:07:34.724Z,19.30
2019-04-06T08:10:07.075Z,17.50
2019-04-06T08:12:38.046Z,19.63
2019-04-06T08:15:08.748Z,20.50
2019-04-06T08:17:38.870Z,18.80
2019-04-06T08:20:09.240Z,17.30
2019-04-06T08:22:40.230Z,18.47
2019-04-06T08:25:20.282Z,18.27
2019-04-06T08:27:50.609Z,26.07
2019-04-06T08:30:20.495Z,18.23
2019-04-06T08:32:50.451Z,19.83
2019-04-06T08:35:26.159Z,19.93
2019-04-06T08:37:51.895Z,15.70
2019-04-06T08:40:21.853Z,14.53
2019-04-06T08:42:51.691Z,27.47
2019-04-06T08:45:21.711Z,14.07
2019-04-06T08:47:52.807Z,11.23
2019-04-06T08:50:24.751Z,18.13
2019-04-06T08:52:56.576Z,15.07
2019-04-06T08:55:26.283Z,13.37
2019-04-06T08:57:56.040Z,13.10
2019-04-06T09:00:25.700Z,9.50
2019-04-06T09:02:55.647Z,8.23
2019-04-06T09:05:25.765Z,16.43
2019-04-06T09:07:55.596Z,8.43
2019-04-06T09:10:25.558Z,7.83
2019-04-06T09:12:55.399Z,8.67
2019-04-06T09:15:25.146Z,11.77
2019-04-06T09:17:55.233Z,9.33
2019-04-06T09:20:44.152Z,11.47
2019-04-06T09:23:14.129Z,12.73
2019-04-06T09:25:44.331Z,9.43
2019-04-06T09:28:14.181Z,11.17
2019-04-06T09:30:44.145Z,10.80
2019-04-06T09:33:14.094Z,10.20
2019-04-06T09:35:44.868Z,10.87
2019-04-06T09:38:20.087Z,8.10
2019-04-06T09:40:50.098Z,11.30
2019-04-06T09:43:20.436Z,10.67
2019-04-06T09:45:59.400Z,18.77
2019-04-06T09:48:31.741Z,11.57
2019-04-06T09:51:06.162Z,13.70
2019-04-06T09:54:04.789Z,15.07
2019-04-06T09:56:32.077Z,12.17
2019-04-06T09:59:06.265Z,15.17
2019-04-06T10:01:55.260Z,11.07
2019-04-06T10:04:29.748Z,11.13
2019-04-06T10:07:04.424Z,9.90
2019-04-06T10:09:36.148Z,11.13
2019-04-06T10:12:11.261Z,9.80
2019-04-06T10:14:59.590Z,15.90
2019-04-06T10:17:42.741Z,16.07
2019-04-06T10:20:30.768Z,11.40
2019-04-06T10:23:14.059Z,12.17
2019-04-06T10:25:51.724Z,10.40
2019-04-06T10:28:35.772Z,11.13
2019-04-06T10:31:23.934Z,14.57
2019-04-06T10:34:00.920Z,21.73
2019-04-06T10:36:35.714Z,12.90
2019-04-06T10:39:09.245Z,21.60
2019-04-06T10:41:42.552Z,11.07
2019-04-06T10:44:16.821Z,14.27
2019-04-06T10:46:57.086Z,12.90
2019-04-06T10:49:31.332Z,14.47
2019-04-06T10:52:02.936Z,11.70
2019-04-06T10:54:54.849Z,13.23
2019-04-06T10:57:43.510Z,13.70
2019-04-06T11:00:22.180Z,28.47
2019-04-06T11:02:59.896Z,13.57
2019-04-06T11:05:46.579Z,13.97
2019-04-06T11:08:33.167Z,11.30
2019-04-06T11:11:10.924Z,12.80
2019-04-06T11:13:42.907Z,10.10
2019-04-06T11:16:16.179Z,13.53
2019-04-06T11:18:50.195Z,15.40
2019-04-06T11:21:37.651Z,14.03
2019-04-06T11:24:11.862Z,16.93
2019-04-06T11:26:58.463Z,15.63
2019-04-06T11:29:47.968Z,13.50
2019-04-06T11:32:19.468Z,14.03
2019-04-06T11:34:53.768Z,10.53
2019-04-06T11:37:26.264Z,11.93
2019-04-06T11:40:15.955Z,10.00
2019-04-06T11:42:47.591Z,12.50
2019-04-06T11:45:41.318Z,11.87
2019-04-06T11:48:13.852Z,26.07
2019-04-06T11:50:47.904Z,12.13
2019-04-06T11:53:25.436Z,15.70
2019-04-06T11:56:06.927Z,10.63
2019-04-06T11:58:38.268Z,12.70
2019-04-06T12:01:16.280Z,16.27
2019-04-06T12:03:47.636Z,16.10
2019-04-06T12:06:19.225Z,13.20
2019-04-06T12:08:56.320Z,10.43
2019-04-06T12:11:30.686Z,12.47
2019-04-06T12:14:21.299Z,12.07
2019-04-06T12:17:05.044Z,11.93
2019-04-06T12:19:45.441Z,16.87
2019-04-06T12:22:19.799Z,13.23
2019-04-06T12:25:00.983Z,12.67
2019-04-06T12:27:48.216Z,10.47
2019-04-06T12:30:23.385Z,9.93
2019-04-06T12:33:03.893Z,22.73
2019-04-06T12:35:51.814Z,12.43
2019-04-06T12:38:29.323Z,15.50
2019-04-06T12:41:18.264Z,13.53
2019-04-06T12:43:56.447Z,16.33
2019-04-06T12:46:44.871Z,15.03
2019-04-06T12:49:28.732Z,13.50
2019-04-06T12:52:00.979Z,11.10
2019-04-06T12:54:49.027Z,16.03
2019-04-06T12:57:23.278Z,10.13
2019-04-06T12:59:56.912Z,11.30
2019-04-06T13:02:42.695Z,16.60
2019-04-06T13:05:18.036Z,20.60
2019-04-06T13:08:06.827Z,19.10
2019-04-06T13:10:38.381Z,12.73
2019-04-06T13:13:20.652Z,11.40
2019-04-06T13:15:54.096Z,12.13
2019-04-06T13:18:41.464Z,11.63
2019-04-06T13:21:17.164Z,9.47
2019-04-06T13:23:57.423Z,14.13
2019-04-06T13:26:29.059Z,9.00
2019-04-06T13:29:00.619Z,11.37
2019-04-06T13:31:34.895Z,12.23
2019-04-06T13:34:08.966Z,12.23
2019-04-06T13:36:47.547Z,15.33
2019-04-06T13:39:22.648Z,9.97
2019-04-06T13:42:10.185Z,10.47
2019-04-06T13:44:53.882Z,11.00
2019-04-06T13:47:48.983Z,11.20
2019-04-06T13:50:24.156Z,8.20
2019-04-06T13:52:56.488Z,11.00
2019-04-06T13:55:34.019Z,18.73
2019-04-06T13:58:08.091Z,13.83
2019-04-06T14:00:57.355Z,13.03
2019-04-06T14:03:33.744Z,10.20
2019-04-06T14:06:19.222Z,9.17
2019-04-06T14:08:55.408Z,11.00
2019-04-06T14:11:27.876Z,15.43
2019-04-06T14:14:11.499Z,8.67
2019-04-06T14:17:01.339Z,13.20
2019-04-06T14:19:49.253Z,7.17
2019-04-06T14:22:20.686Z,12.77
2019-04-06T14:24:56.058Z,9.63
2019-04-06T14:27:27.954Z,8.60
2019-04-06T14:30:04.696Z,9.23
2019-04-06T14:32:54.502Z,7.80
2019-04-06T14:35:38.931Z,8.40
2019-04-06T14:38:17.284Z,9.20
2019-04-06T14:40:55.473Z,10.90
2019-04-06T14:43:29.028Z,7.80
2019-04-06T14:46:03.245Z,11.43
2019-04-06T14:48:50.666Z,10.00
2019-04-06T14:51:28.108Z,9.47
2019-04-06T14:54:09.484Z,13.03
2019-04-06T14:56:44.964Z,9.30
2019-04-06T14:59:32.698Z,10.17
2019-04-06T15:02:14.356Z,10.47
2019-04-06T15:04:51.276Z,6.30
2019-04-06T15:07:41.573Z,6.60
2019-04-06T15:10:22.341Z,6.17
2019-04-06T15:12:54.397Z,9.77
2019-04-06T15:15:42.353Z,10.20
2019-04-06T15:18:23.488Z,6.70
2019-04-06T15:20:55.148Z,7.97
2019-04-06T15:23:29.266Z,7.13
2019-04-06T15:26:00.608Z,8.70
2019-04-06T15:28:35.287Z,7.37
2019-04-06T15:31:07.944Z,7.50
2019-04-06T15:33:53.300Z,7.50
2019-04-06T15:36:24.655Z,8.80
2019-04-06T15:39:12.732Z,6.90
2019-04-06T15:41:57.500Z,7.30
2019-04-06T15:44:30.916Z,11.40
2019-04-06T15:47:18.559Z,7.00
2019-04-06T15:50:06.857Z,6.97
2019-04-06T15:52:44.154Z,10.23
2019-04-06T15:55:15.924Z,7.30
2019-04-06T15:57:50.356Z,8.27
2019-04-06T16:00:36.069Z,8.60
2019-04-06T16:03:28.112Z,7.13
2019-04-06T16:06:05.958Z,8.37
2019-04-06T16:08:47.333Z,8.60
2019-04-06T16:11:30.836Z,8.03
2019-04-06T16:14:02.615Z,12.70
2019-04-06T16:16:40.186Z,7.17
2019-04-06T16:19:17.534Z,12.30
2019-04-06T16:21:48.944Z,8.50
2019-04-06T16:24:23.188Z,8.50
2019-04-06T16:27:10.414Z,7.90
2019-04-06T16:29:47.608Z,9.07
2019-04-06T16:32:33.366Z,7.37
2019-04-06T16:35:02.347Z,9.93
2019-04-06T16:37:39.609Z,7.10
2019-04-06T16:40:27.537Z,6.90
2019-04-06T16:43:11.075Z,7.00
2019-04-06T16:45:48.990Z,6.90
2019-04-06T16:48:23.206Z,8.57
2019-04-06T16:51:04.205Z,7.70
2019-04-06T16:53:55.731Z,7.33
2019-04-06T16:56:31.900Z,7.70
2019-04-06T16:59:22.420Z,7.20
2019-04-06T17:02:02.924Z,8.33
2019-04-06T17:04:35.476Z,9.90
2019-04-06T17:07:23.334Z,9.17
2019-04-06T17:09:58.088Z,6.03
2019-04-06T17:12:32.250Z,8.30
2019-04-06T17:15:07.356Z,7.10
2019-04-06T17:17:55.120Z,9.13
2019-04-06T17:20:32.512Z,8.83
2019-04-06T17:23:03.984Z,12.63
2019-04-06T17:25:53.685Z,6.53
2019-04-06T17:28:32.081Z,8.23
2019-04-06T17:31:09.384Z,5.00
2019-04-06T17:33:53.637Z,8.30
2019-04-06T17:36:27.451Z,5.97
2019-04-06T17:39:07.621Z,6.03
2019-04-06T17:41:51.167Z,5.63
2019-04-06T17:44:37.022Z,7.60
2019-04-06T17:47:20.205Z,7.67
2019-04-06T17:50:04.152Z,6.43
2019-04-06T17:52:38.566Z,6.80
2019-04-06T17:55:11.285Z,8.97
2019-04-06T17:58:02.545Z,6.63
2019-04-06T18:00:33.993Z,7.20
2019-04-06T18:03:25.224Z,5.60
2019-04-06T18:06:02.736Z,6.20
2019-04-06T18:08:47.438Z,6.07
2019-04-06T18:11:31.788Z,20.23
2019-04-06T18:14:02.042Z,7.43
2019-04-06T18:16:38.865Z,7.30
2019-04-06T18:19:08.873Z,6.63
2019-04-06T18:21:41.141Z,6.13
2019-04-06T18:24:11.294Z,6.60
2019-04-06T18:26:41.425Z,7.60
2019-04-06T18:29:11.814Z,6.23
2019-04-06T18:31:43.606Z,5.37
2019-04-06T18:34:13.740Z,5.73
2019-04-06T18:36:45.241Z,5.70
2019-04-06T18:39:17.513Z,5.17
2019-04-06T18:41:47.218Z,5.97
2019-04-06T18:44:16.909Z,5.47
2019-04-06T18:46:47.810Z,5.83
2019-04-06T18:49:18.136Z,4.47
2019-04-06T18:51:49.275Z,5.30
2019-04-06T18:54:19.104Z,6.20
2019-04-06T18:56:51.266Z,5.30
2019-04-06T18:59:21.711Z,5.67
2019-04-06T19:01:51.790Z,5.00
2019-04-06T19:04:21.609Z,5.83
2019-04-06T19:06:51.563Z,5.63
2019-04-06T19:09:24.049Z,6.73
2019-04-06T19:11:56.487Z,5.13
2019-04-06T19:14:25.922Z,5.07
2019-04-06T19:16:55.958Z,4.77
2019-04-06T19:19:28.440Z,6.47
2019-04-06T19:22:07.203Z,5.53
2019-04-06T19:24:36.896Z,5.17
2019-04-06T19:27:06.619Z,6.20
2019-04-06T19:29:37.320Z,5.07
2019-04-06T19:32:07.254Z,6.00
2019-04-06T19:34:37.381Z,8.53
2019-04-06T19:37:14.014Z,8.53
2019-04-06T19:39:45.047Z,7.03
2019-04-06T19:42:15.949Z,5.37
2019-04-06T19:44:46.312Z,7.23
2019-04-06T19:47:16.713Z,7.00
2019-04-06T19:49:48.220Z,6.03
2019-04-06T19:52:18.930Z,6.03
2019-04-06T19:54:49.134Z,6.67
2019-04-06T19:57:19.866Z,6.57
2019-04-06T19:59:49.568Z,6.27
2019-04-06T20:02:19.379Z,6.00
2019-04-06T20:04:49.374Z,4.97
2019-04-06T20:07:19.433Z,7.10
2019-04-06T20:09:51.167Z,5.07
2019-04-06T20:12:22.060Z,5.97
2019-04-06T20:14:52.925Z,6.63
2019-04-06T20:17:22.889Z,6.23
2019-04-06T20:19:53.018Z,6.57
2019-04-06T20:22:24.805Z,6.20
2019-04-06T20:24:54.820Z,9.70
2019-04-06T20:27:24.528Z,10.20
2019-04-06T20:29:54.237Z,9.00
2019-04-06T20:32:24.860Z,8.27
2019-04-06T20:35:04.229Z,5.90
2019-04-06T20:37:36.271Z,5.63
2019-04-06T20:40:11.846Z,5.03
2019-04-06T20:42:41.676Z,8.03
2019-04-06T20:45:16.819Z,6.50
2019-04-06T20:47:47.402Z,16.53
2019-04-06T20:50:18.012Z,8.17
2019-04-06T20:52:48.171Z,5.87
2019-04-06T20:55:18.264Z,5.33
2019-04-06T20:57:48.367Z,7.50
2019-04-06T21:00:19.844Z,4.70
2019-04-06T21:02:51.062Z,6.43
2019-04-06T21:05:21.108Z,7.77
2019-04-06T21:07:51.380Z,4.60
2019-04-06T21:10:22.028Z,5.17
2019-04-06T21:12:52.470Z,5.67
2019-04-06T21:15:22.700Z,13.20
2019-04-06T21:17:53.303Z,5.37
2019-04-06T21:20:23.500Z,4.90
2019-04-06T21:22:56.296Z,8.70
2019-04-06T21:25:26.421Z,9.13
2019-04-06T21:28:00.324Z,4.93
2019-04-06T21:30:30.366Z,5.07
2019-04-06T21:33:04.544Z,4.97
2019-04-06T21:35:41.338Z,3.70
2019-04-06T21:38:11.185Z,4.43
2019-04-06T21:40:50.096Z,5.43
2019-04-06T21:43:22.443Z,4.27
2019-04-06T21:45:53.340Z,8.40
2019-04-06T21:48:23.514Z,5.20
2019-04-06T21:50:53.352Z,4.33
2019-04-06T21:53:27.417Z,4.80
2019-04-06T21:56:03.947Z,13.07
2019-04-06T21:58:30.860Z,4.30
2019-04-06T22:01:01.440Z,4.47
2019-04-06T22:03:32.633Z,4.40
2019-04-06T22:06:02.743Z,6.87
2019-04-06T22:08:35.068Z,12.73
2019-04-06T22:11:06.214Z,4.40
2019-04-06T22:13:40.006Z,4.97
2019-04-06T22:16:14.912Z,4.70
2019-04-06T22:18:44.592Z,3.90
2019-04-06T22:21:14.745Z,4.93
2019-04-06T22:23:45.984Z,6.27
2019-04-06T22:26:18.248Z,4.83
2019-04-06T22:28:48.095Z,3.60
2019-04-06T22:31:18.022Z,4.73
2019-04-06T22:33:55.974Z,3.67
2019-04-06T22:36:26.130Z,4.10
2019-04-06T22:38:56.272Z,5.57
2019-04-06T22:41:26.347Z,5.53
2019-04-06T22:43:56.488Z,3.43
2019-04-06T22:46:32.565Z,4.23
2019-04-06T22:49:03.289Z,3.80
2019-04-06T22:51:32.997Z,4.13
2019-04-06T22:54:03.595Z,5.13
2019-04-06T22:56:33.615Z,3.73
2019-04-06T22:59:04.334Z,3.00
2019-04-06T23:01:36.824Z,3.10
2019-04-06T23:04:27.003Z,2.90
2019-04-06T23:07:01.964Z,7.07
2019-04-06T23:09:33.418Z,4.00
2019-04-06T23:12:04.372Z,3.63
2019-04-06T23:14:35.338Z,3.20
2019-04-06T23:17:05.354Z,5.63
2019-04-06T23:19:35.385Z,5.00
2019-04-06T23:22:05.821Z,4.23
2019-04-06T23:24:39.764Z,4.70
2019-04-06T23:27:09.893Z,10.27
2019-04-06T23:29:39.651Z,5.23
2019-04-06T23:32:10.217Z,4.23
2019-04-06T23:34:40.752Z,3.80
2019-04-06T23:37:10.634Z,3.40
2019-04-06T23:39:40.305Z,3.57
2019-04-06T23:42:11.920Z,4.03
2019-04-06T23:44:53.072Z,4.53
2019-04-06T23:47:22.898Z,3.60
2019-04-06T23:49:53.576Z,3.53
2019-04-06T23:52:23.261Z,6.93
2019-04-06T23:54:53.330Z,3.30
2019-04-06T23:57:23.812Z,3.70
2019-04-06T23:59:55.580Z,5.50
